createdAt,value
2024-04-22T00:01:48.994Z,4.88
2024-04-22T00:04:20.225Z,4.80
2024-04-22T00:06:51.150Z,5.20
2024-04-22T00:09:19.275Z,4.93
2024-04-22T00:11:49.974Z,5.15
2024-04-22T00:14:19.070Z,5.57
2024-04-22T00:16:49.989Z,5.03
2024-04-22T00:19:21.033Z,5.20
2024-04-22T00:21:51.836Z,4.90
2024-04-22T00:24:19.931Z,5.22
2024-04-22T00:26:50.748Z,5.57
2024-04-22T00:29:18.714Z,5.82
2024-04-22T00:31:49.544Z,4.93
2024-04-22T00:34:20.290Z,4.80
2024-04-22T00:36:51.167Z,4.78
2024-04-22T00:39:19.232Z,5.18
2024-04-22T00:41:49.934Z,5.10
2024-04-22T00:44:18.113Z,4.78
2024-04-22T00:46:49.246Z,5.10
2024-04-22T00:49:20.545Z,4.72
2024-04-22T00:51:51.816Z,5.13
2024-04-22T00:54:19.951Z,4.68
2024-04-22T00:56:52.363Z,4.45
2024-04-22T00:59:20.626Z,5.07
2024-04-22T01:01:52.465Z,5.00
2024-04-22T01:04:26.040Z,4.85
2024-04-22T01:06:54.162Z,5.18
2024-04-22T01:09:24.876Z,5.05
2024-04-22T01:11:53.193Z,5.18
2024-04-22T01:14:24.303Z,5.05
2024-04-22T01:16:55.797Z,5.22
2024-04-22T01:19:29.584Z,5.10
2024-04-22T01:22:00.579Z,4.97
2024-04-22T01:24:31.335Z,4.50
2024-04-22T01:27:06.101Z,5.13
2024-04-22T01:29:34.167Z,5.10
2024-04-22T01:32:05.726Z,4.43
2024-04-22T01:34:34.008Z,4.53
2024-04-22T01:37:07.561Z,4.95
2024-04-22T01:39:35.647Z,4.60
2024-04-22T01:42:06.422Z,5.05
2024-04-22T01:44:34.461Z,4.93
2024-04-22T01:47:05.262Z,4.60
2024-04-22T01:49:33.680Z,4.50
2024-04-22T01:52:07.358Z,4.70
2024-04-22T01:54:35.883Z,4.32
2024-04-22T01:57:06.887Z,4.85
2024-04-22T01:59:35.204Z,5.35
2024-04-22T02:02:05.817Z,4.68
2024-04-22T02:04:34.037Z,4.85
2024-04-22T02:07:08.204Z,4.55
2024-04-22T02:09:36.395Z,4.90
2024-04-22T02:12:07.379Z,4.97
2024-04-22T02:14:37.079Z,5.35
2024-04-22T02:17:08.252Z,4.63
2024-04-22T02:19:36.445Z,4.50
2024-04-22T02:22:09.844Z,4.57
2024-04-22T02:24:37.954Z,5.18
2024-04-22T02:27:08.976Z,5.10
2024-04-22T02:29:37.049Z,4.65
2024-04-22T02:32:08.528Z,4.75
2024-04-22T02:34:37.609Z,4.55
2024-04-22T02:37:11.232Z,4.68
2024-04-22T02:39:39.355Z,4.30
2024-04-22T02:42:10.511Z,4.50
2024-04-22T02:44:38.770Z,4.10
2024-04-22T02:47:09.952Z,4.47
2024-04-22T02:49:38.270Z,4.32
2024-04-22T02:52:11.971Z,4.32
2024-04-22T02:54:40.080Z,4.78
2024-04-22T02:57:10.778Z,4.38
2024-04-22T02:59:38.923Z,4.60
2024-04-22T03:02:09.607Z,4.30
2024-04-22T03:04:37.739Z,4.75
2024-04-22T03:07:11.720Z,4.22
2024-04-22T03:09:44.095Z,4.63
2024-04-22T03:12:15.336Z,4.43
2024-04-22T03:14:43.838Z,4.70
2024-04-22T03:17:14.867Z,4.63
2024-04-22T03:19:45.946Z,4.72
2024-04-22T03:22:19.424Z,4.95
2024-04-22T03:24:48.298Z,5.40
2024-04-22T03:27:19.289Z,5.30
2024-04-22T03:29:47.535Z,4.53
2024-04-22T03:32:18.735Z,5.30
2024-04-22T03:34:46.802Z,5.10
2024-04-22T03:37:20.645Z,5.03
2024-04-22T03:39:51.517Z,5.28
2024-04-22T03:42:22.607Z,5.50
2024-04-22T03:44:53.602Z,5.20
2024-04-22T03:47:40.237Z,5.40
2024-04-22T03:50:11.344Z,5.10
2024-04-22T03:52:44.841Z,5.20
2024-04-22T03:55:15.716Z,5.35
2024-04-22T03:57:48.823Z,5.38
2024-04-22T04:00:21.422Z,4.63
2024-04-22T04:02:49.584Z,5.07
2024-04-22T04:05:22.850Z,5.35
2024-04-22T04:07:55.378Z,5.40
2024-04-22T04:10:26.978Z,4.90
2024-04-22T04:12:55.120Z,5.05
2024-04-22T04:15:26.248Z,5.50
2024-04-22T04:17:56.204Z,5.68
2024-04-22T04:20:27.174Z,5.30
2024-04-22T04:22:58.064Z,5.50
2024-04-22T04:25:30.504Z,5.13
2024-04-22T04:27:58.582Z,5.50
2024-04-22T04:30:29.347Z,5.50
2024-04-22T04:32:58.235Z,5.45
2024-04-22T04:35:28.879Z,5.38
2024-04-22T04:37:59.774Z,5.00
2024-04-22T04:40:30.582Z,4.93
2024-04-22T04:42:58.674Z,5.07
2024-04-22T04:45:29.406Z,5.43
2024-04-22T04:47:57.576Z,9.80
2024-04-22T04:50:28.306Z,6.20
2024-04-22T04:52:59.996Z,5.90
2024-04-22T04:55:30.825Z,5.97
2024-04-22T04:58:10.652Z,11.57
2024-04-22T05:00:41.810Z,6.30
2024-04-22T05:03:10.596Z,5.70
2024-04-22T05:05:47.590Z,7.32
2024-04-22T05:08:26.405Z,6.82
2024-04-22T05:10:59.160Z,7.88
2024-04-22T05:13:27.356Z,7.85
2024-04-22T05:15:58.500Z,9.50
2024-04-22T05:18:27.538Z,10.48
2024-04-22T05:20:58.339Z,8.20
2024-04-22T05:23:31.913Z,10.25
2024-04-22T05:26:00.168Z,6.20
2024-04-22T05:28:30.977Z,5.90
2024-04-22T05:30:59.191Z,9.85
2024-04-22T05:33:45.918Z,8.90
2024-04-22T05:36:16.816Z,9.13
2024-04-22T05:38:51.449Z,5.45
2024-04-22T05:41:23.995Z,4.97
2024-04-22T05:43:54.754Z,8.32
2024-04-22T05:46:25.734Z,7.20
2024-04-22T05:48:53.782Z,6.72
2024-04-22T05:51:24.501Z,7.10
2024-04-22T05:53:58.001Z,6.03
2024-04-22T05:56:26.098Z,5.85
2024-04-22T05:58:56.814Z,5.18
2024-04-22T06:01:25.067Z,7.22
2024-04-22T06:03:56.771Z,7.90
2024-04-22T06:06:24.937Z,6.10
2024-04-22T06:08:58.425Z,5.43
2024-04-22T06:11:26.662Z,5.30
2024-04-22T06:13:57.362Z,6.57
2024-04-22T06:16:27.004Z,5.90
2024-04-22T06:18:57.820Z,7.90
2024-04-22T06:21:25.991Z,5.38
2024-04-22T06:23:59.336Z,7.13
2024-04-22T06:26:27.439Z,5.60
2024-04-22T06:28:58.256Z,5.28
2024-04-22T06:31:26.333Z,5.35
2024-04-22T06:33:57.005Z,7.60
2024-04-22T06:36:25.157Z,7.22
2024-04-22T06:38:55.812Z,9.40
2024-04-22T06:41:26.614Z,8.40
2024-04-22T06:43:57.387Z,5.70
2024-04-22T06:46:26.012Z,5.88
2024-04-22T06:48:56.772Z,9.43
2024-04-22T06:51:25.916Z,7.03
2024-04-22T06:53:56.638Z,6.80
2024-04-22T06:56:28.888Z,6.88
2024-04-22T06:58:59.754Z,5.55
2024-04-22T07:01:35.206Z,7.03
2024-04-22T07:04:11.030Z,6.03
2024-04-22T07:06:39.178Z,5.10
2024-04-22T07:09:18.057Z,5.70
2024-04-22T07:11:48.975Z,7.05
2024-04-22T07:14:21.205Z,5.45
2024-04-22T07:16:55.251Z,6.68
2024-04-22T07:19:26.176Z,7.20
2024-04-22T07:21:54.291Z,7.00
2024-04-22T07:24:26.381Z,6.32
2024-04-22T07:26:59.576Z,7.78
2024-04-22T07:29:30.757Z,6.90
2024-04-22T07:31:59.481Z,6.05
2024-04-22T07:34:30.767Z,5.80
2024-04-22T07:37:10.800Z,7.22
2024-04-22T07:39:45.546Z,11.05
2024-04-22T07:42:16.464Z,10.23
2024-04-22T07:44:47.608Z,11.15
2024-04-22T07:47:15.790Z,12.32
2024-04-22T07:49:46.699Z,10.38
2024-04-22T07:52:16.121Z,9.00
2024-04-22T07:54:47.797Z,8.50
2024-04-22T07:57:19.355Z,6.70
2024-04-22T07:59:50.739Z,6.03
2024-04-22T08:02:19.483Z,7.15
2024-04-22T08:04:50.869Z,7.38
2024-04-22T08:07:20.649Z,7.10
2024-04-22T08:09:51.865Z,6.38
2024-04-22T08:12:22.764Z,7.65
2024-04-22T08:14:53.850Z,6.80
2024-04-22T08:17:22.543Z,8.93
2024-04-22T08:19:54.877Z,8.82
2024-04-22T08:22:24.731Z,6.72
2024-04-22T08:24:55.533Z,9.32
2024-04-22T08:27:26.350Z,7.18
2024-04-22T08:29:59.590Z,8.88
2024-04-22T08:32:28.064Z,8.98
2024-04-22T08:34:59.302Z,10.25
2024-04-22T08:37:27.657Z,9.15
2024-04-22T08:39:58.382Z,10.10
2024-04-22T08:42:29.441Z,11.07
2024-04-22T08:45:00.342Z,9.68
2024-04-22T08:47:28.925Z,8.30
2024-04-22T08:49:59.714Z,8.48
2024-04-22T08:52:33.646Z,8.73
2024-04-22T08:55:11.626Z,8.10
2024-04-22T08:57:42.516Z,12.90
2024-04-22T09:00:14.102Z,6.25
2024-04-22T09:02:42.483Z,7.70
2024-04-22T09:05:13.434Z,8.82
2024-04-22T09:07:51.226Z,7.25
2024-04-22T09:10:55.446Z,7.55
2024-04-22T09:13:18.827Z,8.02
2024-04-22T09:15:49.931Z,7.45
2024-04-22T09:18:18.741Z,7.60
2024-04-22T09:20:49.537Z,9.50
2024-04-22T09:23:18.996Z,10.00
2024-04-22T09:25:50.472Z,10.80
2024-04-22T09:28:28.982Z,7.63
2024-04-22T09:33:36.038Z,8.88
2024-04-22T09:36:08.868Z,8.52
2024-04-22T09:38:46.390Z,8.43
2024-04-22T09:41:19.514Z,7.22
2024-04-22T09:43:57.071Z,7.50
2024-04-22T09:46:32.916Z,6.90
2024-04-22T09:49:02.301Z,8.45
2024-04-22T09:51:33.476Z,6.63
2024-04-22T09:54:01.783Z,8.05
2024-04-22T09:56:35.343Z,10.75
2024-04-22T09:59:07.582Z,7.28
2024-04-22T10:01:39.499Z,7.13
2024-04-22T10:04:09.320Z,6.78
2024-04-22T10:06:40.180Z,6.82
2024-04-22T10:09:08.333Z,7.53
2024-04-22T10:11:40.944Z,7.47
2024-04-22T10:14:18.257Z,6.60
2024-04-22T10:16:57.880Z,6.20
2024-04-22T10:19:29.374Z,5.65
2024-04-22T10:22:04.026Z,6.65
2024-04-22T10:24:36.993Z,6.13
2024-04-22T10:27:12.282Z,6.80
2024-04-22T10:29:44.260Z,5.85
2024-04-22T10:32:15.583Z,6.75
2024-04-22T10:34:45.903Z,7.05
2024-04-22T10:37:17.605Z,6.00
2024-04-22T10:39:45.904Z,6.28
2024-04-22T10:42:17.271Z,5.63
2024-04-22T10:44:48.615Z,6.95
2024-04-22T10:47:19.491Z,6.03
2024-04-22T10:49:48.427Z,6.80
2024-04-22T10:52:19.188Z,7.53
2024-04-22T10:54:51.907Z,7.30
2024-04-22T10:57:24.121Z,6.88
2024-04-22T10:59:57.376Z,7.43
2024-04-22T11:02:28.254Z,7.45
2024-04-22T11:04:56.887Z,9.25
2024-04-22T11:07:30.388Z,7.00
2024-04-22T11:09:59.456Z,7.80
2024-04-22T11:12:32.291Z,8.40
2024-04-22T11:15:03.795Z,8.02
2024-04-22T11:17:35.101Z,5.68
2024-04-22T11:20:12.478Z,5.53
2024-04-22T11:22:44.861Z,5.65
2024-04-22T11:25:13.252Z,7.90
2024-04-22T11:27:44.532Z,6.20
2024-04-22T11:30:15.660Z,4.85
2024-04-22T11:32:46.559Z,5.47
2024-04-22T11:35:14.749Z,4.97
2024-04-22T11:37:45.496Z,4.47
2024-04-22T11:40:14.036Z,5.90
2024-04-22T11:42:44.846Z,6.28
2024-04-22T11:45:15.599Z,5.57
2024-04-22T11:47:46.731Z,7.35
2024-04-22T11:50:15.071Z,6.85
2024-04-22T11:52:45.971Z,6.63
2024-04-22T11:55:14.517Z,5.60
2024-04-22T11:57:45.374Z,5.80
2024-04-22T12:00:16.401Z,6.00
2024-04-22T12:02:47.488Z,5.07
2024-04-22T12:05:15.770Z,5.88
2024-04-22T12:07:47.893Z,5.22
2024-04-22T12:10:16.466Z,5.72
2024-04-22T12:12:48.752Z,6.38
2024-04-22T12:15:21.000Z,7.05
2024-04-22T12:17:51.843Z,6.25
2024-04-22T12:20:20.286Z,5.43
2024-04-22T12:22:51.271Z,6.28
2024-04-22T12:25:19.623Z,5.57
2024-04-22T12:27:53.240Z,5.88
2024-04-22T12:30:25.696Z,6.90
2024-04-22T12:32:56.594Z,6.15
2024-04-22T12:35:24.818Z,6.93
2024-04-22T12:37:55.981Z,6.45
2024-04-22T12:40:24.184Z,5.97
2024-04-22T12:42:54.910Z,5.95
2024-04-22T12:45:25.696Z,6.40
2024-04-22T12:48:12.237Z,7.63
2024-04-22T12:50:47.042Z,7.95
2024-04-22T12:53:20.939Z,8.73
2024-04-22T12:55:51.956Z,8.27
2024-04-22T12:58:23.057Z,7.55
2024-04-22T13:00:56.797Z,8.20
2024-04-22T13:03:27.676Z,8.93
2024-04-22T13:05:59.498Z,8.38
2024-04-22T13:08:30.769Z,9.23
2024-04-22T13:11:01.875Z,7.80
2024-04-22T13:13:32.751Z,7.75
2024-04-22T13:16:06.186Z,7.25
2024-04-22T13:18:37.102Z,7.30
2024-04-22T13:21:06.416Z,7.05
2024-04-22T13:23:37.188Z,6.07
2024-04-22T13:26:05.554Z,6.85
2024-04-22T13:28:36.402Z,6.18
2024-04-22T13:31:10.283Z,6.88
2024-04-22T13:33:41.091Z,8.35
2024-04-22T13:36:09.427Z,7.00
2024-04-22T13:38:40.168Z,6.07
2024-04-22T13:41:08.228Z,5.43
2024-04-22T13:43:39.122Z,5.57
2024-04-22T13:46:10.235Z,6.40
2024-04-22T13:48:44.116Z,6.20
2024-04-22T13:51:13.995Z,6.28
2024-04-22T13:53:44.886Z,6.07
2024-04-22T13:56:13.117Z,5.95
2024-04-22T13:58:44.370Z,5.95
2024-04-22T14:01:15.603Z,6.80
2024-04-22T14:03:48.426Z,6.35
2024-04-22T14:06:16.743Z,5.78
2024-04-22T14:08:47.792Z,7.53
2024-04-22T14:11:16.393Z,7.30
2024-04-22T14:13:47.279Z,6.03
2024-04-22T14:16:18.126Z,6.78
2024-04-22T14:18:48.888Z,6.32
2024-04-22T14:21:17.232Z,6.32
2024-04-22T14:23:47.963Z,5.75
2024-04-22T14:26:20.092Z,5.38
2024-04-22T14:28:52.070Z,5.70
2024-04-22T14:31:24.346Z,5.28
2024-04-22T14:33:56.323Z,5.20
2024-04-22T14:36:24.830Z,4.78
2024-04-22T14:38:55.549Z,5.90
2024-04-22T14:41:23.846Z,4.95
2024-04-22T14:43:54.739Z,5.13
2024-04-22T14:46:26.060Z,6.18
2024-04-22T14:48:57.536Z,6.90
2024-04-22T14:51:25.783Z,7.80
2024-04-22T14:53:56.972Z,9.32
2024-04-22T14:56:25.128Z,8.50
2024-04-22T14:58:57.021Z,8.50
2024-04-22T15:01:28.337Z,7.30
2024-04-22T15:03:59.263Z,6.55
2024-04-22T15:06:27.565Z,7.28
2024-04-22T15:08:58.261Z,6.40
2024-04-22T15:11:30.534Z,5.95
2024-04-22T15:14:01.518Z,5.63
2024-04-22T15:16:32.382Z,5.70
2024-04-22T15:19:03.173Z,5.68
2024-04-22T15:21:31.814Z,5.50
2024-04-22T15:24:02.513Z,5.82
2024-04-22T15:26:30.636Z,5.68
2024-04-22T15:29:03.434Z,5.88
2024-04-22T15:31:34.421Z,6.50
2024-04-22T15:34:05.171Z,6.72
2024-04-22T15:36:33.343Z,6.57
2024-04-22T15:39:05.611Z,8.27
2024-04-22T15:41:33.708Z,10.18
2024-04-22T15:44:04.871Z,8.68
2024-04-22T15:46:38.438Z,10.75
2024-04-22T15:49:06.546Z,10.65
2024-04-22T15:51:37.223Z,9.50
2024-04-22T15:54:05.665Z,7.90
2024-04-22T15:56:39.383Z,7.93
2024-04-22T15:59:09.492Z,6.47
2024-04-22T16:01:43.330Z,6.80
2024-04-22T16:04:14.321Z,6.63
2024-04-22T16:06:42.459Z,6.80
2024-04-22T16:09:13.402Z,6.88
2024-04-22T16:11:41.579Z,7.13
2024-04-22T16:14:12.317Z,7.80
2024-04-22T16:16:43.213Z,6.95
2024-04-22T16:19:14.040Z,7.63
2024-04-22T16:21:42.621Z,7.63
2024-04-22T16:24:13.372Z,7.40
2024-04-22T16:26:41.486Z,8.25
2024-04-22T16:29:15.224Z,8.43
2024-04-22T16:31:46.325Z,9.20
2024-04-22T16:34:17.278Z,9.73
2024-04-22T16:36:45.579Z,9.30
2024-04-22T16:39:16.253Z,8.98
2024-04-22T16:41:44.310Z,9.45
2024-04-22T16:44:14.987Z,9.20
2024-04-22T16:46:45.833Z,9.15
2024-04-22T16:49:17.206Z,10.98
2024-04-22T16:51:45.421Z,10.68
2024-04-22T16:54:16.266Z,11.35
2024-04-22T16:56:44.368Z,9.98
2024-04-22T16:59:15.082Z,11.02
2024-04-22T17:01:45.871Z,12.25
2024-04-22T17:04:16.673Z,12.77
2024-04-22T17:06:44.721Z,11.57
2024-04-22T17:09:17.363Z,14.93
2024-04-22T17:11:45.584Z,14.68
2024-04-22T17:14:16.310Z,14.60
2024-04-22T17:16:47.101Z,14.13
2024-04-22T17:19:18.124Z,15.32
2024-04-22T17:21:48.057Z,14.20
2024-04-22T17:24:18.918Z,14.68
2024-04-22T17:26:46.898Z,14.02
2024-04-22T17:29:17.606Z,13.43
2024-04-22T17:31:48.328Z,16.45
2024-04-22T17:34:19.265Z,26.00
2024-04-22T17:36:47.422Z,14.90
2024-04-22T17:39:19.053Z,12.68
2024-04-22T17:41:47.119Z,12.25
2024-04-22T17:44:18.012Z,12.60
2024-04-22T17:46:48.815Z,12.40
2024-04-22T17:49:20.469Z,12.48
2024-04-22T17:51:48.659Z,12.82
2024-04-22T17:54:19.380Z,14.00
2024-04-22T17:56:56.119Z,14.02
2024-04-22T17:59:30.714Z,16.05
2024-04-22T18:02:01.491Z,16.70
2024-04-22T18:04:32.418Z,16.25
2024-04-22T18:07:00.673Z,16.00
2024-04-22T18:09:32.833Z,22.20
2024-04-22T18:12:01.149Z,25.02
2024-04-22T18:14:31.935Z,21.58
2024-04-22T18:17:03.627Z,23.67
2024-04-22T18:19:37.789Z,21.17
2024-04-22T18:22:11.392Z,19.40
2024-04-22T18:24:50.145Z,42.50
2024-04-22T18:27:18.188Z,33.28
2024-04-22T18:29:49.193Z,42.03
2024-04-22T18:32:20.081Z,28.38
2024-04-22T18:34:50.953Z,35.25
2024-04-22T18:37:19.214Z,21.92
2024-04-22T18:39:50.382Z,17.38
2024-04-22T18:42:21.790Z,22.40
2024-04-22T18:44:52.669Z,21.25
2024-04-22T18:47:24.028Z,17.02
2024-04-22T18:49:55.012Z,17.20
2024-04-22T18:52:25.962Z,16.73
2024-04-22T18:54:59.949Z,16.30
2024-04-22T18:57:28.197Z,15.98
2024-04-22T18:59:59.331Z,15.82
2024-04-22T19:02:30.290Z,18.08
2024-04-22T19:05:01.475Z,18.45
2024-04-22T19:07:32.079Z,18.02
2024-04-22T19:10:03.125Z,18.73
2024-04-22T19:12:32.066Z,17.98
2024-04-22T19:15:02.727Z,16.65
2024-04-22T19:17:35.250Z,19.67
2024-04-22T19:20:07.811Z,18.30
2024-04-22T19:22:39.044Z,20.02
2024-04-22T19:25:10.397Z,18.83
2024-04-22T19:27:39.039Z,16.10
2024-04-22T19:30:10.939Z,15.05
2024-04-22T19:32:44.300Z,16.25
2024-04-22T19:35:15.830Z,15.75
2024-04-22T19:37:44.472Z,17.10
2024-04-22T19:40:15.255Z,15.65
2024-04-22T19:42:43.426Z,15.07
2024-04-22T19:45:17.329Z,15.57
2024-04-22T19:47:48.792Z,15.55
2024-04-22T19:50:22.752Z,16.58
2024-04-22T19:52:50.909Z,15.30
2024-04-22T19:55:21.643Z,17.08
2024-04-22T19:57:55.202Z,16.25
2024-04-22T20:00:26.930Z,26.48
2024-04-22T20:03:01.133Z,23.38
2024-04-22T20:05:32.160Z,23.05
2024-04-22T20:08:00.462Z,20.38
2024-04-22T20:10:31.285Z,24.05
2024-04-22T20:12:59.479Z,31.75
2024-04-22T20:15:41.201Z,32.40
2024-04-22T20:18:17.561Z,34.40
2024-04-22T20:20:58.246Z,32.50
2024-04-22T20:23:26.633Z,30.08
2024-04-22T20:25:58.250Z,26.27
2024-04-22T20:28:27.629Z,25.60
2024-04-22T20:30:58.837Z,25.33
2024-04-22T20:33:29.765Z,26.92
2024-04-22T20:36:00.674Z,26.15
2024-04-22T20:38:28.821Z,24.83
2024-04-22T20:41:03.293Z,27.00
2024-04-22T20:43:35.118Z,26.75
2024-04-22T20:46:06.867Z,28.42
2024-04-22T20:48:39.067Z,30.58
2024-04-22T20:51:13.872Z,30.88
2024-04-22T20:53:41.907Z,31.65
2024-04-22T20:56:15.018Z,32.25
2024-04-22T20:58:45.247Z,33.15
2024-04-22T21:01:17.372Z,33.05
2024-04-22T21:03:48.203Z,36.17
2024-04-22T21:06:20.374Z,36.83
2024-04-22T21:08:48.808Z,36.35
2024-04-22T21:11:19.617Z,34.75
2024-04-22T21:13:58.074Z,34.78
2024-04-22T21:19:07.583Z,31.50
2024-04-22T21:21:46.118Z,32.35
2024-04-22T21:24:14.535Z,33.75
2024-04-22T21:26:45.267Z,34.13
2024-04-22T21:29:16.090Z,36.67
2024-04-22T21:31:49.790Z,37.53
2024-04-22T21:34:23.411Z,37.35
2024-04-22T21:36:51.896Z,37.50
2024-04-22T21:39:26.379Z,39.72
2024-04-22T21:41:54.450Z,50.20
2024-04-22T21:44:27.050Z,60.17
2024-04-22T21:46:58.111Z,65.47
2024-04-22T21:49:33.353Z,69.85
2024-04-22T21:52:01.469Z,66.85
2024-04-22T21:54:33.792Z,66.03
2024-04-22T21:57:39.180Z,67.55
2024-04-22T22:00:47.758Z,58.75
2024-04-22T22:03:52.949Z,55.75
2024-04-22T22:07:01.324Z,52.65
2024-04-22T22:09:33.770Z,50.53
2024-04-22T22:12:07.636Z,48.70
2024-04-22T22:14:35.707Z,47.90
2024-04-22T22:17:06.676Z,46.83
2024-04-22T22:19:35.717Z,44.03
2024-04-22T22:22:06.437Z,44.45
2024-04-22T22:24:42.954Z,43.25
2024-04-22T22:27:15.948Z,44.17
2024-04-22T22:29:44.170Z,40.47
2024-04-22T22:32:14.910Z,39.75
2024-04-22T22:34:43.094Z,36.92
2024-04-22T22:37:13.906Z,35.67
2024-04-22T22:39:47.402Z,32.58
2024-04-22T22:42:19.695Z,33.97
2024-04-22T22:44:49.755Z,28.23
2024-04-22T22:47:20.659Z,26.30
2024-04-22T22:49:48.886Z,22.13
2024-04-22T22:52:19.561Z,18.98
2024-04-22T22:54:50.260Z,18.73
2024-04-22T22:57:21.077Z,16.73
2024-04-22T22:59:49.131Z,15.88
2024-04-22T23:02:19.857Z,14.95
2024-04-22T23:04:47.969Z,13.00
2024-04-22T23:07:18.616Z,11.88
2024-04-22T23:09:46.799Z,11.85
2024-04-22T23:12:21.255Z,11.02
2024-04-22T23:14:52.000Z,9.40
2024-04-22T23:17:22.746Z,8.57
2024-04-22T23:19:51.127Z,7.57
2024-04-22T23:22:22.216Z,7.45
2024-04-22T23:24:50.615Z,6.60
2024-04-22T23:27:24.206Z,6.22
2024-04-22T23:29:52.538Z,5.70
2024-04-22T23:32:23.437Z,5.57
2024-04-22T23:34:53.656Z,5.22
2024-04-22T23:37:24.382Z,5.68
2024-04-22T23:39:52.669Z,4.97
2024-04-22T23:42:26.033Z,4.47
2024-04-22T23:44:54.329Z,4.78
2024-04-22T23:47:25.080Z,4.47
2024-04-22T23:49:53.394Z,4.55
2024-04-22T23:52:24.487Z,4.50
2024-04-22T23:54:52.738Z,4.40
2024-04-22T23:57:26.036Z,4.68
2024-04-22T23:59:54.138Z,4.55
